Time;durP1;ratioP1;P1;durP2;ratioP2;P2;SDS_P1;SDS_P2;PMS_P1;PMS_P2;Temp;Humidity;BMP_temperature;BMP_pressure;BME280_temperature;BME280_humidity;BME280_pressure;Samples;Min_cycle;Max_cycle;Signal;HPM_P1;HPM_P2
2022/04/29 00:02:10;;;;;;;17.33;9.90;;;6.00;99.90;;;;;;5007403;28;20107;-63
2022/04/29 00:04:37;;;;;;;17.75;10.00;;;6.00;99.90;;;;;;5001896;28;20030;-63
2022/04/29 00:07:06;;;;;;;19.55;9.63;;;6.00;99.90;;;;;;5010171;28;20034;-63
2022/04/29 00:09:35;;;;;;;20.17;9.85;;;6.00;99.90;;;;;;5001836;28;20045;-63
2022/04/29 00:12:03;;;;;;;17.58;9.85;;;6.00;99.90;;;;;;4997504;28;20022;-63
2022/04/29 00:14:30;;;;;;;18.00;9.88;;;6.00;99.90;;;;;;5010016;28;20049;-63
2022/04/29 00:16:56;;;;;;;16.70;9.32;;;6.00;99.90;;;;;;5006124;28;20049;-63
2022/04/29 00:19:22;;;;;;;18.05;9.70;;;5.90;99.90;;;;;;5007920;28;20052;-63
2022/04/29 00:21:48;;;;;;;17.20;9.32;;;5.80;99.90;;;;;;5013181;28;20459;-63
2022/04/29 00:24:14;;;;;;;16.95;9.50;;;5.70;99.90;;;;;;4996731;28;20044;-63
2022/04/29 00:26:40;;;;;;;15.73;8.57;;;5.60;99.90;;;;;;5004392;28;20038;-63
2022/04/29 00:29:07;;;;;;;17.35;9.10;;;5.50;99.90;;;;;;5007831;28;20034;-63
2022/04/29 00:31:33;;;;;;;18.08;9.18;;;5.50;99.90;;;;;;5006676;28;20041;-63
2022/04/29 00:33:59;;;;;;;17.00;9.25;;;5.50;99.90;;;;;;4986195;28;20030;-63
2022/04/29 00:36:25;;;;;;;16.05;9.07;;;5.40;99.90;;;;;;4995422;28;20045;-63
2022/04/29 00:38:51;;;;;;;16.48;9.30;;;5.40;99.90;;;;;;4999441;28;20080;-63
2022/04/29 00:41:18;;;;;;;17.75;9.60;;;5.50;99.90;;;;;;5000303;28;20086;-63
2022/04/29 00:43:44;;;;;;;16.92;9.63;;;5.40;99.90;;;;;;4992808;28;20073;-63
2022/04/29 00:46:10;;;;;;;20.40;10.50;;;5.50;99.90;;;;;;4998423;28;20491;-63
2022/04/29 00:48:36;;;;;;;19.10;9.85;;;5.40;99.90;;;;;;5005626;28;20042;-63
2022/04/29 00:51:02;;;;;;;18.15;10.13;;;5.40;99.90;;;;;;5008281;28;20034;-63
2022/04/29 00:53:29;;;;;;;17.42;10.05;;;5.40;99.90;;;;;;5004821;28;20029;-63
2022/04/29 00:55:57;;;;;;;16.75;9.68;;;5.30;99.90;;;;;;5007862;28;20125;-63
2022/04/29 00:58:36;;;;;;;17.25;9.80;;;5.30;99.90;;;;;;4994959;28;20109;-63
2022/04/29 01:01:03;;;;;;;19.17;9.70;;;5.20;99.90;;;;;;5006197;28;20053;-63
2022/04/29 01:03:29;;;;;;;18.75;9.65;;;5.20;99.90;;;;;;5007296;28;20057;-63
2022/04/29 01:05:55;;;;;;;17.13;9.85;;;5.20;99.90;;;;;;5005354;28;20096;-63
2022/04/29 01:08:21;;;;;;;18.02;9.88;;;5.10;99.90;;;;;;4993133;28;20030;-63
2022/04/29 01:10:48;;;;;;;20.45;10.15;;;5.10;99.90;;;;;;5001126;28;20038;-63
2022/04/29 01:13:16;;;;;;;20.02;10.10;;;5.10;99.90;;;;;;5002471;28;20037;-63
2022/04/29 01:15:42;;;;;;;19.15;10.32;;;5.10;99.90;;;;;;5003232;28;20143;-63
2022/04/29 01:18:09;;;;;;;20.00;9.65;;;5.10;99.90;;;;;;5005519;28;20126;-63
2022/04/29 01:20:36;;;;;;;17.50;9.88;;;5.20;99.90;;;;;;5008343;28;20036;-63
2022/04/29 01:23:06;;;;;;;20.30;9.48;;;5.10;99.90;;;;;;5004194;28;20041;-63
2022/04/29 01:25:32;;;;;;;14.30;7.07;;;4.90;99.90;;;;;;5002823;28;20080;-63
2022/04/29 01:27:58;;;;;;;19.95;10.15;;;4.90;99.90;;;;;;5006549;28;20095;-64
2022/04/29 01:30:24;;;;;;;19.25;9.40;;;5.00;99.90;;;;;;5006890;28;20042;-62
2022/04/29 01:32:50;;;;;;;19.05;9.65;;;5.00;99.90;;;;;;5005800;28;20037;-63
2022/04/29 01:35:16;;;;;;;17.67;9.77;;;5.00;99.90;;;;;;5003452;28;20041;-63
2022/04/29 01:37:43;;;;;;;19.25;10.50;;;5.00;99.90;;;;;;5002410;28;20034;-63
2022/04/29 01:40:10;;;;;;;19.67;9.75;;;4.90;99.90;;;;;;4990460;28;20058;-63
2022/04/29 01:42:36;;;;;;;22.05;10.30;;;4.80;99.90;;;;;;4998756;28;20034;-63
2022/04/29 01:45:03;;;;;;;17.90;10.05;;;4.70;99.90;;;;;;4998106;28;20043;-63
2022/04/29 01:47:29;;;;;;;18.67;10.23;;;4.60;99.90;;;;;;5007065;28;20048;-63
2022/04/29 01:49:55;;;;;;;18.70;9.50;;;4.50;99.90;;;;;;5007637;28;20030;-63
2022/04/29 01:52:20;;;;;;;17.80;9.48;;;4.50;99.90;;;;;;4996870;28;20701;-63
2022/04/29 01:54:46;;;;;;;17.02;8.98;;;4.40;99.90;;;;;;5004541;28;20062;-63
2022/04/29 01:57:12;;;;;;;18.75;9.65;;;4.40;99.90;;;;;;5004588;28;20058;-63
2022/04/29 01:59:38;;;;;;;17.20;9.63;;;4.30;99.90;;;;;;4985903;28;20026;-62
2022/04/29 02:02:06;;;;;;;18.35;8.70;;;4.30;99.90;;;;;;5003988;28;20577;-63
2022/04/29 02:04:32;;;;;;;14.88;9.10;;;4.20;99.90;;;;;;5003918;28;20338;-63
2022/04/29 02:06:58;;;;;;;17.58;8.98;;;4.20;99.90;;;;;;5001477;28;20030;-63
2022/04/29 02:09:24;;;;;;;18.00;9.40;;;4.20;99.90;;;;;;4996696;28;20030;-63
2022/04/29 02:12:05;;;;;;;19.58;9.48;;;4.20;99.90;;;;;;4995110;28;20034;-63
2022/04/29 02:14:32;;;;;;;18.52;9.48;;;4.30;99.90;;;;;;5001401;28;20058;-63
2022/04/29 02:16:58;;;;;;;19.80;9.25;;;4.30;99.90;;;;;;5008715;28;20048;-63
2022/04/29 02:19:25;;;;;;;18.20;9.18;;;4.30;99.90;;;;;;5005767;28;20030;-62
2022/04/29 02:21:52;;;;;;;21.08;9.80;;;4.30;99.90;;;;;;5007976;28;20084;-63
2022/04/29 02:24:17;;;;;;;20.80;10.27;;;4.30;99.90;;;;;;4997698;28;20030;-63
2022/04/29 02:26:43;;;;;;;18.20;9.73;;;4.30;99.90;;;;;;4997189;28;20049;-62
2022/04/29 02:29:09;;;;;;;21.38;9.95;;;4.30;99.90;;;;;;4981731;28;20030;-63
2022/04/29 02:31:35;;;;;;;20.98;9.82;;;4.30;99.90;;;;;;5008013;28;20445;-62
2022/04/29 02:34:01;;;;;;;19.20;9.95;;;4.40;99.90;;;;;;5005488;28;20021;-63
2022/04/29 02:36:28;;;;;;;21.10;9.85;;;4.40;99.90;;;;;;5007697;28;21050;-62
2022/04/29 02:38:53;;;;;;;17.42;9.30;;;4.20;99.90;;;;;;4997009;28;20022;-63
2022/04/29 02:41:19;;;;;;;19.40;9.00;;;4.10;99.90;;;;;;4994249;28;20041;-63
2022/04/29 02:43:45;;;;;;;19.35;10.23;;;3.90;99.90;;;;;;4995760;28;20040;-63
2022/04/29 02:46:10;;;;;;;18.90;9.98;;;3.90;99.90;;;;;;4978861;28;20125;-63
2022/04/29 02:48:36;;;;;;;16.30;9.18;;;3.90;99.90;;;;;;5004608;28;20807;-63
2022/04/29 02:51:04;;;;;;;16.80;9.63;;;4.00;99.90;;;;;;5009354;28;20037;-62
2022/04/29 02:53:30;;;;;;;24.27;9.65;;;4.10;99.90;;;;;;5005757;28;20041;-63
2022/04/29 02:55:56;;;;;;;18.98;9.35;;;4.10;99.90;;;;;;4978002;28;20360;-63
2022/04/29 02:58:22;;;;;;;22.05;10.18;;;4.10;99.90;;;;;;5007721;28;20064;-62
2022/04/29 03:00:48;;;;;;;19.83;9.88;;;4.00;99.90;;;;;;5006475;28;20661;-62
2022/04/29 03:03:13;;;;;;;18.48;9.75;;;3.90;99.90;;;;;;5006067;28;20522;-63
2022/04/29 03:05:40;;;;;;;18.60;9.80;;;3.90;99.90;;;;;;5005157;28;20030;-63
2022/04/29 03:08:06;;;;;;;20.13;10.05;;;3.80;99.90;;;;;;4999706;28;20034;-63
2022/04/29 03:10:33;;;;;;;18.45;9.65;;;3.80;99.90;;;;;;5004078;28;20041;-62
2022/04/29 03:12:58;;;;;;;16.38;9.05;;;3.70;99.90;;;;;;4979808;28;20108;-63
2022/04/29 03:15:25;;;;;;;22.17;9.43;;;3.70;99.90;;;;;;4996108;28;20302;-63
2022/04/29 03:20:37;;;;;;;17.15;9.23;;;3.60;99.90;;;;;;4994165;28;20579;-63
2022/04/29 03:23:04;;;;;;;20.73;9.60;;;3.60;99.90;;;;;;5011386;28;20056;-61
2022/04/29 03:25:30;;;;;;;18.98;9.80;;;3.70;99.90;;;;;;5022545;28;20168;-63
2022/04/29 03:27:56;;;;;;;19.25;9.55;;;3.70;99.90;;;;;;4989982;28;20113;-63
2022/04/29 03:30:21;;;;;;;19.35;9.70;;;3.70;99.90;;;;;;5000661;28;20026;-63
2022/04/29 03:32:54;;;;;;;16.92;9.00;;;3.70;99.90;;;;;;4991165;28;20475;-63
2022/04/29 03:35:20;;;;;;;21.50;10.18;;;3.60;99.90;;;;;;4991033;28;20475;-63
2022/04/29 03:37:46;;;;;;;20.08;10.60;;;3.60;99.90;;;;;;5009926;28;20031;-63
2022/04/29 03:40:14;;;;;;;20.08;10.05;;;3.50;99.90;;;;;;4993437;28;20045;-63
2022/04/29 03:42:40;;;;;;;20.20;9.98;;;3.60;99.90;;;;;;5007617;28;20026;-62
2022/04/29 03:45:06;;;;;;;18.45;9.77;;;3.50;99.90;;;;;;4997842;28;20038;-62
2022/04/29 03:47:32;;;;;;;17.27;9.80;;;3.50;99.90;;;;;;5002909;28;20042;-63
2022/04/29 03:49:59;;;;;;;18.42;9.82;;;3.60;99.90;;;;;;4995317;28;20045;-63
2022/04/29 03:52:25;;;;;;;20.55;10.00;;;3.60;99.90;;;;;;5006178;28;20127;-62
2022/04/29 03:54:51;;;;;;;19.13;9.43;;;3.60;99.90;;;;;;4984434;28;20076;-63
2022/04/29 03:57:16;;;;;;;17.65;9.07;;;3.50;99.90;;;;;;4994831;28;20026;-63
2022/04/29 03:59:42;;;;;;;16.08;8.77;;;3.50;99.90;;;;;;5000301;28;20037;-63
2022/04/29 04:02:08;;;;;;;20.40;10.48;;;3.40;99.90;;;;;;4998900;28;20033;-61
2022/04/29 04:04:33;;;;;;;18.80;9.95;;;3.40;99.90;;;;;;5009212;28;20069;-62
2022/04/29 04:07:02;;;;;;;18.80;10.15;;;3.40;99.90;;;;;;4997279;28;20463;-63
2022/04/29 04:09:28;;;;;;;16.85;9.55;;;3.30;99.90;;;;;;5001581;28;20022;-62
2022/04/29 04:11:54;;;;;;;20.85;9.57;;;3.20;99.90;;;;;;4987140;28;20041;-62
2022/04/29 04:14:20;;;;;;;18.10;9.73;;;3.10;99.90;;;;;;4998532;28;20782;-62
2022/04/29 04:16:46;;;;;;;20.15;10.43;;;3.20;99.90;;;;;;4994225;28;20034;-62
2022/04/29 04:19:11;;;;;;;21.17;9.57;;;3.20;99.90;;;;;;5008907;28;20030;-65
2022/04/29 04:21:37;;;;;;;19.50;9.68;;;3.10;99.90;;;;;;4994286;28;20041;-64
2022/04/29 04:24:03;;;;;;;21.90;9.82;;;3.10;99.90;;;;;;4992312;28;20032;-64
2022/04/29 04:26:29;;;;;;;17.92;9.30;;;3.10;99.90;;;;;;5006557;28;20041;-65
2022/04/29 04:28:55;;;;;;;21.38;10.60;;;3.10;99.90;;;;;;4997350;28;20485;-61
2022/04/29 04:31:21;;;;;;;21.52;11.52;;;3.20;99.90;;;;;;4998609;28;20430;-61
2022/04/29 04:33:48;;;;;;;20.38;10.30;;;3.20;99.90;;;;;;5006339;28;20039;-62
2022/04/29 04:36:14;;;;;;;23.60;12.10;;;3.30;99.90;;;;;;5007501;28;20072;-62
2022/04/29 04:38:39;;;;;;;21.58;10.77;;;3.30;99.90;;;;;;4989921;28;20135;-62
2022/04/29 04:41:07;;;;;;;21.23;11.07;;;3.40;99.90;;;;;;5016464;28;20037;-62
2022/04/29 04:43:33;;;;;;;23.85;11.48;;;3.40;99.90;;;;;;5010179;28;20022;-62
2022/04/29 04:45:59;;;;;;;26.73;11.40;;;3.40;99.90;;;;;;5010030;28;20045;-63
2022/04/29 04:48:25;;;;;;;22.95;11.00;;;3.50;99.90;;;;;;5004998;28;20049;-61
2022/04/29 04:50:50;;;;;;;23.23;10.88;;;3.50;99.90;;;;;;4995787;28;20083;-62
2022/04/29 04:53:16;;;;;;;23.88;10.35;;;3.70;99.90;;;;;;5004740;28;20390;-64
2022/04/29 04:55:42;;;;;;;20.85;9.95;;;3.80;99.90;;;;;;5009299;28;20453;-64
2022/04/29 04:58:09;;;;;;;17.15;9.20;;;3.90;99.90;;;;;;5008681;28;20595;-63
2022/04/29 05:00:35;;;;;;;19.85;10.15;;;3.90;99.90;;;;;;5008076;28;20018;-66
2022/04/29 05:03:01;;;;;;;17.92;10.23;;;3.90;99.90;;;;;;5009087;28;20053;-62
2022/04/29 05:05:27;;;;;;;19.02;10.75;;;3.90;99.90;;;;;;5011658;28;20497;-62
2022/04/29 05:07:52;;;;;;;18.58;10.20;;;4.10;99.90;;;;;;5009475;28;20034;-62
2022/04/29 05:10:18;;;;;;;19.13;8.93;;;4.30;99.90;;;;;;5003018;28;20426;-63
2022/04/29 05:12:47;;;;;;;19.55;9.70;;;4.60;99.90;;;;;;5006707;28;20042;-64
2022/04/29 05:15:14;;;;;;;17.83;10.02;;;4.80;99.90;;;;;;5001495;28;20077;-64
2022/04/29 05:17:41;;;;;;;19.20;9.90;;;4.80;99.90;;;;;;5003801;28;20030;-63
2022/04/29 05:20:09;;;;;;;15.82;9.77;;;4.80;99.90;;;;;;4999201;28;20030;-62
2022/04/29 05:22:35;;;;;;;16.70;9.77;;;5.00;99.90;;;;;;5003414;28;20038;-62
2022/04/29 05:25:01;;;;;;;16.48;9.30;;;5.10;99.90;;;;;;4998657;28;20105;-62
2022/04/29 05:27:26;;;;;;;18.02;9.80;;;5.20;99.90;;;;;;5006541;28;20101;-62
2022/04/29 05:29:52;;;;;;;18.27;9.50;;;5.40;99.90;;;;;;5003691;28;20037;-63
2022/04/29 05:32:18;;;;;;;23.98;9.50;;;5.60;99.90;;;;;;5004283;28;20030;-62
2022/04/29 05:34:45;;;;;;;18.58;9.73;;;5.70;99.90;;;;;;5003091;28;20100;-64
2022/04/29 05:37:11;;;;;;;19.98;9.60;;;5.80;99.90;;;;;;5007785;28;20030;-64
2022/04/29 05:42:23;;;;;;;18.50;9.88;;;6.10;99.90;;;;;;5007337;28;20052;-65
2022/04/29 05:44:48;;;;;;;17.83;9.60;;;6.30;99.90;;;;;;4989269;28;20384;-63
2022/04/29 05:47:14;;;;;;;17.88;10.15;;;6.50;99.90;;;;;;4997805;28;20044;-64
2022/04/29 05:49:40;;;;;;;20.08;9.90;;;6.70;99.90;;;;;;5006445;28;20046;-63
2022/04/29 05:52:07;;;;;;;17.95;9.90;;;6.80;99.90;;;;;;5009854;28;20109;-61
2022/04/29 05:54:34;;;;;;;19.88;9.90;;;6.80;99.90;;;;;;5004992;28;20080;-62
2022/04/29 05:57:01;;;;;;;19.05;10.18;;;6.90;99.90;;;;;;5001317;28;20033;-63
2022/04/29 05:59:27;;;;;;;21.15;10.52;;;7.00;99.90;;;;;;5005331;28;20022;-62
2022/04/29 06:01:53;;;;;;;22.83;10.50;;;7.20;99.90;;;;;;5005806;28;20025;-65
2022/04/29 06:04:18;;;;;;;16.90;10.18;;;7.30;99.90;;;;;;4998240;28;20030;-63
2022/04/29 06:06:44;;;;;;;19.80;10.60;;;7.40;99.90;;;;;;4995657;28;20538;-63
2022/04/29 06:09:10;;;;;;;22.63;11.10;;;7.40;99.90;;;;;;4999700;28;20038;-65
2022/04/29 06:11:35;;;;;;;18.38;10.88;;;7.50;99.90;;;;;;5006071;28;20022;-64
2022/04/29 06:14:01;;;;;;;21.67;11.10;;;7.70;99.90;;;;;;5001714;28;20037;-63
2022/04/29 06:16:27;;;;;;;22.55;11.20;;;7.90;99.90;;;;;;5000109;28;20030;-63
2022/04/29 06:18:53;;;;;;;20.23;10.77;;;8.00;99.90;;;;;;4990793;28;20462;-64
2022/04/29 06:21:19;;;;;;;20.48;10.82;;;8.20;99.90;;;;;;5010223;28;20034;-63
2022/04/29 06:23:46;;;;;;;19.80;10.15;;;8.30;99.90;;;;;;5005394;28;20850;-63
2022/04/29 06:26:12;;;;;;;20.75;10.95;;;8.40;99.90;;;;;;5029106;28;20034;-63
2022/04/29 06:28:38;;;;;;;19.25;11.27;;;8.60;99.90;;;;;;5020768;28;20101;-64
2022/04/29 06:31:05;;;;;;;23.30;10.63;;;8.70;99.90;;;;;;4993936;28;20037;-64
2022/04/29 06:33:32;;;;;;;16.63;10.20;;;8.80;99.90;;;;;;5009923;28;20049;-65
2022/04/29 06:35:57;;;;;;;21.55;12.38;;;9.00;99.90;;;;;;5011597;28;20030;-66
2022/04/29 06:38:24;;;;;;;21.50;11.52;;;9.20;99.90;;;;;;5004826;28;20041;-63
2022/04/29 06:40:50;;;;;;;18.17;10.68;;;9.60;99.90;;;;;;5021942;28;20060;-63
2022/04/29 06:43:19;;;;;;;21.08;10.95;;;9.80;99.90;;;;;;5019382;28;20038;-63
2022/04/29 06:45:45;;;;;;;20.55;11.43;;;10.20;99.90;;;;;;5011897;28;20045;-65
2022/04/29 06:48:11;;;;;;;19.88;11.10;;;10.40;99.90;;;;;;5010859;28;20038;-63
2022/04/29 06:50:37;;;;;;;20.05;10.77;;;10.50;99.90;;;;;;5010612;28;20052;-63
2022/04/29 06:53:03;;;;;;;20.48;11.05;;;10.50;99.90;;;;;;5001675;28;20479;-63
2022/04/29 06:55:29;;;;;;;19.23;11.10;;;10.60;99.90;;;;;;5005429;28;20525;-62
2022/04/29 06:57:54;;;;;;;17.80;11.10;;;10.60;99.90;;;;;;5011418;28;20117;-62
2022/04/29 07:00:20;;;;;;;20.65;11.65;;;10.70;99.90;;;;;;5009567;28;20030;-64
2022/04/29 07:02:47;;;;;;;22.73;11.02;;;10.90;99.90;;;;;;4989920;28;20034;-63
2022/04/29 07:05:13;;;;;;;18.70;10.05;;;11.10;99.90;;;;;;4992210;28;20372;-63
2022/04/29 07:07:39;;;;;;;21.67;11.48;;;11.40;99.90;;;;;;4999018;28;20034;-62
2022/04/29 07:10:06;;;;;;;19.95;10.52;;;11.70;99.90;;;;;;5007188;28;20037;-63
2022/04/29 07:12:39;;;;;;;17.80;10.30;;;11.90;99.90;;;;;;4999569;28;20026;-66
2022/04/29 07:15:06;;;;;;;23.08;10.88;;;12.20;99.90;;;;;;5005389;28;20058;-63
2022/04/29 07:17:32;;;;;;;18.65;10.45;;;12.50;99.90;;;;;;4970456;28;20087;-63
2022/04/29 07:19:58;;;;;;;20.67;10.40;;;12.80;99.90;;;;;;5004345;28;20044;-65
2022/04/29 07:22:24;;;;;;;16.75;10.13;;;13.10;99.90;;;;;;5001278;28;20030;-63
2022/04/29 07:24:49;;;;;;;17.60;9.50;;;13.30;99.90;;;;;;4991236;28;20042;-65
2022/04/29 07:27:15;;;;;;;19.13;10.52;;;13.50;99.90;;;;;;5002635;28;20045;-63
2022/04/29 07:29:41;;;;;;;17.90;9.68;;;13.80;99.90;;;;;;5008313;28;20022;-64
2022/04/29 07:32:07;;;;;;;16.40;9.07;;;14.10;99.90;;;;;;5010338;28;20458;-64
2022/04/29 07:42:45;;;;;;;21.45;9.73;;;15.00;99.90;;;;;;4991562;28;20390;-62
2022/04/29 07:45:11;;;;;;;16.50;8.77;;;15.00;99.90;;;;;;5007005;28;20137;-62
2022/04/29 07:47:36;;;;;;;17.05;8.82;;;15.10;99.90;;;;;;5010084;28;20034;-62
2022/04/29 07:50:05;;;;;;;15.20;8.77;;;15.10;99.90;;;;;;5005414;28;20057;-63
2022/04/29 07:52:32;;;;;;;17.33;9.13;;;15.10;99.90;;;;;;4984838;28;20423;-62
2022/04/29 07:54:57;;;;;;;15.63;9.20;;;14.90;99.90;;;;;;5009131;28;20080;-63
2022/04/29 07:57:23;;;;;;;15.90;8.57;;;14.80;99.90;;;;;;5008876;28;20034;-63
2022/04/29 07:59:49;;;;;;;15.13;8.80;;;14.80;99.90;;;;;;4973257;28;20038;-64
2022/04/29 08:02:15;;;;;;;15.45;9.30;;;15.00;99.90;;;;;;5001012;28;20109;-63
2022/04/29 08:04:41;;;;;;;17.45;9.32;;;15.10;99.90;;;;;;4990655;28;20615;-62
2022/04/29 08:07:07;;;;;;;17.40;8.40;;;15.30;99.60;;;;;;5010159;28;20080;-61
2022/04/29 08:09:32;;;;;;;14.98;8.10;;;15.50;99.90;;;;;;4992938;28;20065;-61
2022/04/29 08:11:58;;;;;;;15.00;8.48;;;15.60;97.60;;;;;;5005265;28;20029;-63
2022/04/29 08:14:24;;;;;;;14.93;8.05;;;15.70;98.70;;;;;;5008966;28;20056;-62
2022/04/29 08:16:50;;;;;;;12.93;7.07;;;15.80;98.30;;;;;;5015961;28;20034;-63
2022/04/29 08:19:15;;;;;;;13.13;7.63;;;16.10;99.90;;;;;;5013985;28;20030;-62
2022/04/29 08:21:41;;;;;;;15.38;8.55;;;16.10;97.20;;;;;;5007857;28;20100;-62
2022/04/29 08:24:07;;;;;;;12.40;6.95;;;16.00;94.90;;;;;;5009427;28;20033;-63
2022/04/29 08:26:33;;;;;;;12.85;7.38;;;16.00;92.70;;;;;;5009016;28;20041;-62
2022/04/29 08:28:58;;;;;;;12.35;7.00;;;16.00;92.80;;;;;;5022481;28;20052;-62
2022/04/29 08:31:25;;;;;;;10.13;6.35;;;16.10;89.20;;;;;;5009240;28;20368;-62
2022/04/29 08:33:51;;;;;;;9.35;5.60;;;16.20;86.80;;;;;;5006020;28;20030;-63
2022/04/29 08:36:17;;;;;;;12.95;6.40;;;16.20;82.00;;;;;;5001779;28;20044;-64
2022/04/29 08:38:43;;;;;;;12.10;5.53;;;16.40;81.50;;;;;;4990608;28;20108;-65
2022/04/29 08:41:09;;;;;;;9.60;5.57;;;16.40;80.20;;;;;;4993325;28;20441;-62
2022/04/29 08:43:35;;;;;;;8.18;5.25;;;16.40;79.30;;;;;;4999398;28;20084;-62
2022/04/29 08:46:02;;;;;;;9.95;5.10;;;16.50;74.50;;;;;;4999255;28;20419;-63
2022/04/29 08:48:31;;;;;;;10.43;5.57;;;16.70;73.80;;;;;;4993280;28;20041;-62
2022/04/29 08:50:58;;;;;;;8.38;4.95;;;16.90;71.40;;;;;;4995407;28;20030;-62
2022/04/29 08:53:23;;;;;;;12.73;5.57;;;16.90;69.10;;;;;;4989934;28;20026;-62
2022/04/29 08:58:37;;;;;;;9.82;5.07;;;17.00;69.20;;;;;;5008764;28;20406;-64
2022/04/29 09:01:16;;;;;;;9.20;5.72;;;16.90;67.10;;;;;;5005143;28;20117;-63
2022/04/29 09:03:45;;;;;;;11.55;5.13;;;16.90;65.50;;;;;;5008380;28;20072;-63
2022/04/29 09:06:12;;;;;;;11.63;6.13;;;17.10;65.20;;;;;;4989452;28;20132;-63
2022/04/29 09:08:42;;;;;;;8.85;5.65;;;17.30;62.80;;;;;;4996150;28;20038;-61
2022/04/29 09:11:09;;;;;;;10.98;5.30;;;17.70;65.60;;;;;;5001938;28;20037;-62
2022/04/29 09:13:39;;;;;;;10.75;5.60;;;17.90;63.50;;;;;;5002272;28;20438;-62
2022/04/29 09:16:06;;;;;;;9.27;5.72;;;18.30;61.40;;;;;;5007556;28;20050;-64
2022/04/29 09:18:39;;;;;;;8.32;5.40;;;18.20;58.80;;;;;;4996763;28;20375;-62
2022/04/29 09:21:09;;;;;;;9.13;5.80;;;18.00;60.40;;;;;;5009584;28;20064;-62
2022/04/29 09:24:06;;;;;;;43.22;16.15;;;17.80;59.80;;;;;;5001013;28;20037;-62
2022/04/29 09:26:36;;;;;;;64.93;18.58;;;17.80;60.60;;;;;;5001988;28;20461;-63
2022/04/29 09:29:19;;;;;;;18.00;6.05;;;17.60;58.60;;;;;;5013240;28;20087;-62
2022/04/29 09:31:58;;;;;;;7.97;4.90;;;17.50;61.20;;;;;;5008792;28;20108;-62
2022/04/29 09:34:42;;;;;;;7.70;4.35;;;17.50;62.20;;;;;;4996060;28;20067;-63
2022/04/29 09:37:36;;;;;;;12.07;5.18;;;17.70;59.70;;;;;;4975914;28;20027;-62
2022/04/29 09:40:04;;;;;;;11.27;5.07;;;17.90;61.60;;;;;;5015615;28;20474;-62
2022/04/29 09:42:41;;;;;;;11.02;4.78;;;17.80;58.90;;;;;;5012495;28;20076;-61
2022/04/29 09:45:17;;;;;;;6.70;4.80;;;18.10;60.50;;;;;;4993568;28;20482;-61
2022/04/29 09:47:44;;;;;;;7.75;4.90;;;18.20;60.50;;;;;;4997749;28;20038;-62
2022/04/29 09:50:10;;;;;;;8.27;5.22;;;18.40;59.00;;;;;;5012877;28;20112;-63
2022/04/29 09:52:40;;;;;;;10.73;5.40;;;18.20;55.90;;;;;;5010944;28;20033;-64
2022/04/29 09:55:18;;;;;;;8.60;5.13;;;18.10;55.70;;;;;;5013178;28;20107;-63
2022/04/29 09:58:00;;;;;;;10.30;5.45;;;18.30;57.50;;;;;;5010662;28;20034;-63
2022/04/29 10:00:26;;;;;;;8.27;5.53;;;18.50;59.60;;;;;;5013040;28;20026;-64
2022/04/29 10:02:52;;;;;;;8.90;5.45;;;18.60;55.70;;;;;;5011433;28;20056;-63
2022/04/29 10:05:18;;;;;;;9.45;5.78;;;18.60;58.20;;;;;;5012297;28;20026;-63
2022/04/29 10:07:44;;;;;;;11.30;5.50;;;18.60;56.50;;;;;;5002619;28;20054;-64
2022/04/29 10:10:10;;;;;;;7.90;5.22;;;18.80;57.00;;;;;;4993269;28;20026;-64
2022/04/29 10:12:37;;;;;;;9.38;5.10;;;18.80;56.10;;;;;;4999420;28;20022;-65
2022/04/29 10:15:09;;;;;;;10.73;5.80;;;19.00;56.40;;;;;;5011704;28;20507;-63
2022/04/29 10:23:09;;;;;;;8.57;5.65;;;18.60;57.60;;;;;;4993769;28;20054;-62
2022/04/29 10:25:39;;;;;;;8.38;5.65;;;18.20;54.50;;;;;;4992321;28;20557;-64
2022/04/29 10:28:06;;;;;;;9.60;5.90;;;18.00;56.70;;;;;;5002306;28;20057;-63
2022/04/29 10:30:37;;;;;;;11.13;5.10;;;18.20;57.50;;;;;;5011414;28;20029;-63
2022/04/29 10:33:02;;;;;;;13.05;6.13;;;18.40;55.50;;;;;;5010939;28;20030;-62
2022/04/29 10:35:43;;;;;;;10.52;5.25;;;18.60;53.90;;;;;;5011942;28;20034;-63
2022/04/29 10:38:23;;;;;;;15.68;6.45;;;18.60;55.20;;;;;;5010167;28;20038;-63
2022/04/29 10:41:18;;;;;;;10.63;5.75;;;18.50;53.80;;;;;;5010829;28;20038;-63
2022/04/29 10:43:58;;;;;;;12.02;5.82;;;18.60;56.20;;;;;;5011519;28;20037;-63
2022/04/29 10:46:30;;;;;;;9.93;6.22;;;18.40;56.30;;;;;;5025680;28;20038;-63
2022/04/29 10:48:56;;;;;;;8.52;5.82;;;18.40;56.00;;;;;;5008781;28;20050;-63
2022/04/29 10:51:27;;;;;;;12.82;6.18;;;18.80;58.30;;;;;;5008916;28;20057;-62
2022/04/29 10:53:58;;;;;;;10.68;6.88;;;18.90;56.60;;;;;;4992250;28;20518;-62
2022/04/29 10:56:32;;;;;;;12.75;7.10;;;18.90;55.80;;;;;;5009487;28;20189;-62
2022/04/29 10:59:03;;;;;;;12.90;7.47;;;19.10;57.40;;;;;;5005880;28;20050;-63
2022/04/29 11:01:33;;;;;;;14.85;8.10;;;19.30;55.30;;;;;;5030278;28;20037;-62
2022/04/29 11:04:06;;;;;;;12.30;7.28;;;19.10;56.20;;;;;;5027150;28;20109;-62
2022/04/29 11:06:37;;;;;;;9.98;6.85;;;19.20;58.50;;;;;;5011342;28;20097;-63
2022/04/29 11:09:23;;;;;;;10.68;6.32;;;19.10;55.60;;;;;;5010805;28;20116;-63
2022/04/29 11:11:48;;;;;;;13.13;6.00;;;19.10;56.30;;;;;;5010940;28;20030;-63
2022/04/29 11:14:15;;;;;;;10.90;6.68;;;19.00;57.30;;;;;;5016204;28;20704;-62
2022/04/29 11:16:52;;;;;;;13.00;7.00;;;18.80;56.80;;;;;;5010773;28;20389;-63
2022/04/29 11:19:34;;;;;;;12.20;7.32;;;18.60;58.10;;;;;;4993974;28;20058;-63
2022/04/29 11:24:52;;;;;;;16.05;8.18;;;18.90;58.20;;;;;;5009906;28;20064;-62
2022/04/29 11:27:28;;;;;;;19.52;10.45;;;18.80;57.30;;;;;;5011074;28;20481;-63
2022/04/29 11:30:01;;;;;;;11.95;7.03;;;18.90;59.10;;;;;;5009632;28;20022;-63
2022/04/29 11:32:28;;;;;;;12.85;6.85;;;18.90;60.20;;;;;;5010403;28;20080;-63
2022/04/29 11:35:05;;;;;;;12.13;7.80;;;19.20;58.10;;;;;;5007501;28;20690;-63
2022/04/29 11:37:34;;;;;;;13.73;7.82;;;19.20;57.50;;;;;;5010023;28;20110;-63
2022/04/29 11:40:08;;;;;;;13.05;8.30;;;19.10;56.90;;;;;;5010426;28;20037;-63
2022/04/29 11:42:34;;;;;;;15.93;8.63;;;19.30;59.70;;;;;;5008574;28;20040;-62
2022/04/29 11:45:07;;;;;;;12.82;7.68;;;18.90;56.80;;;;;;5010570;28;20069;-63
2022/04/29 11:47:33;;;;;;;11.07;7.50;;;19.10;59.00;;;;;;5008004;28;21197;-62
2022/04/29 11:49:59;;;;;;;13.55;6.93;;;19.50;57.40;;;;;;5009096;28;20104;-62
2022/04/29 11:52:27;;;;;;;10.25;7.10;;;19.60;57.90;;;;;;4999914;28;20469;-63
2022/04/29 11:55:01;;;;;;;11.15;6.80;;;19.60;54.90;;;;;;4990560;28;20030;-63
2022/04/29 11:57:33;;;;;;;9.48;6.20;;;19.40;54.30;;;;;;5002229;28;20076;-62
2022/04/29 12:00:00;;;;;;;14.98;5.80;;;19.50;58.70;;;;;;5015745;28;20026;-62
2022/04/29 12:02:27;;;;;;;9.43;6.20;;;19.80;55.80;;;;;;5010495;28;20097;-63
2022/04/29 12:04:58;;;;;;;15.65;6.55;;;20.00;57.50;;;;;;4991072;28;20482;-63
2022/04/29 12:07:27;;;;;;;10.80;7.22;;;20.40;56.30;;;;;;4993010;28;20034;-63
2022/04/29 12:09:54;;;;;;;10.80;7.20;;;20.70;54.20;;;;;;5004016;28;20038;-63
2022/04/29 12:12:30;;;;;;;13.98;6.85;;;20.60;54.90;;;;;;5006258;28;20470;-63
2022/04/29 12:15:00;;;;;;;10.80;6.05;;;20.60;54.80;;;;;;5008173;28;20203;-63
2022/04/29 12:17:36;;;;;;;10.47;6.77;;;21.00;53.40;;;;;;5010592;28;20037;-63
2022/04/29 12:20:03;;;;;;;7.95;5.97;;;20.80;52.20;;;;;;4999333;28;20035;-63
2022/04/29 12:22:34;;;;;;;10.98;6.32;;;21.00;52.00;;;;;;5008553;28;20026;-63
2022/04/29 12:25:17;;;;;;;10.48;6.35;;;21.00;56.40;;;;;;5009443;28;20141;-62
2022/04/29 12:27:43;;;;;;;9.00;5.82;;;21.00;54.70;;;;;;5008735;28;20528;-63
2022/04/29 12:36:12;;;;;;;12.35;7.05;;;19.50;53.80;;;;;;4989853;28;20100;-62
2022/04/29 12:38:42;;;;;;;9.80;6.40;;;19.10;55.60;;;;;;4999338;28;20030;-62
2022/04/29 12:41:27;;;;;;;11.13;6.88;;;19.10;56.10;;;;;;5010185;28;20253;-62
2022/04/29 12:43:53;;;;;;;8.80;5.90;;;18.80;56.70;;;;;;5008744;28;20056;-62
2022/04/29 12:46:21;;;;;;;9.23;6.18;;;18.70;56.70;;;;;;5008308;28;20104;-62
2022/04/29 12:48:51;;;;;;;9.15;6.25;;;18.70;56.30;;;;;;4988837;28;20038;-62
2022/04/29 12:51:24;;;;;;;;;;;18.90;55.60;;;;;;4973296;28;20352;-62
2022/04/29 12:53:51;;;;;;;10.80;6.20;;;18.80;55.40;;;;;;4991452;28;19960;-61
2022/04/29 12:56:24;;;;;;;9.30;6.43;;;18.70;56.30;;;;;;5009123;28;20029;-62
2022/04/29 12:58:50;;;;;;;7.88;5.70;;;18.80;56.80;;;;;;5005851;28;20789;-62
2022/04/29 13:01:16;;;;;;;13.60;7.00;;;19.00;56.30;;;;;;4989917;28;20038;-62
2022/04/29 13:03:54;;;;;;;14.18;7.40;;;19.00;55.70;;;;;;4990458;28;20112;-63
2022/04/29 13:06:23;;;;;;;12.88;7.40;;;18.70;55.60;;;;;;4985396;28;20137;-62
2022/04/29 13:08:57;;;;;;;12.07;7.25;;;18.60;56.10;;;;;;5012158;28;20745;-62
2022/04/29 13:11:23;;;;;;;9.70;6.80;;;18.40;55.60;;;;;;5009540;28;20047;-61
2022/04/29 13:13:51;;;;;;;9.25;6.30;;;18.30;56.20;;;;;;4999562;28;20030;-62
2022/04/29 13:16:18;;;;;;;10.00;6.40;;;18.40;56.30;;;;;;4986235;28;20144;-62